sensor_id;sensor_type;location;lat;lon;timestamp;P1;durP1;ratioP1;P2;durP2;ratioP2
56830;SDS011;42713;42.676;23.352;2023-02-28T00:01:22;26.17;;;13.90;;
56830;SDS011;42713;42.676;23.352;2023-02-28T00:03:48;22.95;;;12.20;;
56830;SDS011;42713;42.676;23.352;2023-02-28T00:06:13;22.48;;;12.90;;
56830;SDS011;42713;42.676;23.352;2023-02-28T00:08:39;20.67;;;11.45;;
56830;SDS011;42713;42.676;23.352;2023-02-28T00:11:06;23.27;;;13.00;;
56830;SDS011;42713;42.676;23.352;2023-02-28T00:16:04;22.00;;;12.20;;
56830;SDS011;42713;42.676;23.352;2023-02-28T00:18:31;25.02;;;12.63;;
56830;SDS011;42713;42.676;23.352;2023-02-28T00:20:57;22.55;;;12.13;;
56830;SDS011;42713;42.676;23.352;2023-02-28T00:23:23;22.33;;;11.77;;
56830;SDS011;42713;42.676;23.352;2023-02-28T00:25:49;23.23;;;12.65;;
56830;SDS011;42713;42.676;23.352;2023-02-28T00:28:15;26.23;;;12.73;;
56830;SDS011;42713;42.676;23.352;2023-02-28T00:30:40;25.25;;;12.40;;
56830;SDS011;42713;42.676;23.352;2023-02-28T00:33:06;21.85;;;12.15;;
56830;SDS011;42713;42.676;23.352;2023-02-28T00:35:31;24.67;;;13.43;;
56830;SDS011;42713;42.676;23.352;2023-02-28T00:37:57;25.98;;;13.73;;
56830;SDS011;42713;42.676;23.352;2023-02-28T00:40:22;24.17;;;13.32;;
56830;SDS011;42713;42.676;23.352;2023-02-28T00:42:48;25.90;;;13.10;;
56830;SDS011;42713;42.676;23.352;2023-02-28T00:45:13;24.38;;;12.25;;
56830;SDS011;42713;42.676;23.352;2023-02-28T00:47:39;24.13;;;12.32;;
56830;SDS011;42713;42.676;23.352;2023-02-28T00:50:05;22.73;;;12.55;;
56830;SDS011;42713;42.676;23.352;2023-02-28T00:52:31;24.08;;;12.65;;
56830;SDS011;42713;42.676;23.352;2023-02-28T00:54:56;25.00;;;13.48;;
56830;SDS011;42713;42.676;23.352;2023-02-28T00:57:22;29.05;;;14.30;;
56830;SDS011;42713;42.676;23.352;2023-02-28T00:59:47;24.33;;;13.95;;
56830;SDS011;42713;42.676;23.352;2023-02-28T01:02:13;30.42;;;15.55;;
56830;SDS011;42713;42.676;23.352;2023-02-28T01:04:39;24.85;;;14.73;;
56830;SDS011;42713;42.676;23.352;2023-02-28T01:07:04;26.77;;;15.13;;
56830;SDS011;42713;42.676;23.352;2023-02-28T01:09:30;27.77;;;16.10;;
56830;SDS011;42713;42.676;23.352;2023-02-28T01:11:55;27.20;;;14.60;;
56830;SDS011;42713;42.676;23.352;2023-02-28T01:14:21;28.42;;;14.68;;
56830;SDS011;42713;42.676;23.352;2023-02-28T01:16:47;25.73;;;14.48;;
56830;SDS011;42713;42.676;23.352;2023-02-28T01:19:12;27.95;;;16.20;;
56830;SDS011;42713;42.676;23.352;2023-02-28T01:21:38;25.40;;;14.80;;
56830;SDS011;42713;42.676;23.352;2023-02-28T01:24:04;30.10;;;16.05;;
56830;SDS011;42713;42.676;23.352;2023-02-28T01:26:30;29.90;;;15.60;;
56830;SDS011;42713;42.676;23.352;2023-02-28T01:28:56;28.50;;;15.10;;
56830;SDS011;42713;42.676;23.352;2023-02-28T01:31:22;29.00;;;16.52;;
56830;SDS011;42713;42.676;23.352;2023-02-28T01:33:48;28.92;;;15.70;;
56830;SDS011;42713;42.676;23.352;2023-02-28T01:36:15;27.85;;;15.60;;
56830;SDS011;42713;42.676;23.352;2023-02-28T01:38:43;27.25;;;15.73;;
56830;SDS011;42713;42.676;23.352;2023-02-28T01:41:14;29.08;;;15.35;;
56830;SDS011;42713;42.676;23.352;2023-02-28T01:46:07;27.77;;;16.13;;
56830;SDS011;42713;42.676;23.352;2023-02-28T01:48:34;28.83;;;15.35;;
56830;SDS011;42713;42.676;23.352;2023-02-28T01:51:06;28.55;;;14.73;;
56830;SDS011;42713;42.676;23.352;2023-02-28T01:53:44;29.42;;;15.45;;
56830;SDS011;42713;42.676;23.352;2023-02-28T01:56:17;31.65;;;16.92;;
56830;SDS011;42713;42.676;23.352;2023-02-28T01:58:52;31.00;;;16.05;;
56830;SDS011;42713;42.676;23.352;2023-02-28T02:01:20;29.63;;;15.85;;
56830;SDS011;42713;42.676;23.352;2023-02-28T02:03:54;28.73;;;15.95;;
56830;SDS011;42713;42.676;23.352;2023-02-28T02:06:23;30.38;;;15.88;;
56830;SDS011;42713;42.676;23.352;2023-02-28T02:08:52;33.13;;;16.90;;
56830;SDS011;42713;42.676;23.352;2023-02-28T02:11:19;35.33;;;16.48;;
56830;SDS011;42713;42.676;23.352;2023-02-28T02:14:03;29.92;;;16.77;;
56830;SDS011;42713;42.676;23.352;2023-02-28T02:28:11;34.67;;;17.05;;
56830;SDS011;42713;42.676;23.352;2023-02-28T02:36:42;33.88;;;18.55;;
56830;SDS011;42713;42.676;23.352;2023-02-28T02:39:19;29.58;;;18.33;;
56830;SDS011;42713;42.676;23.352;2023-02-28T02:41:55;31.67;;;18.00;;
56830;SDS011;42713;42.676;23.352;2023-02-28T02:44:43;31.70;;;17.23;;
56830;SDS011;42713;42.676;23.352;2023-02-28T02:47:18;30.20;;;16.48;;
56830;SDS011;42713;42.676;23.352;2023-02-28T02:49:48;30.95;;;15.75;;
56830;SDS011;42713;42.676;23.352;2023-02-28T02:52:17;31.55;;;17.60;;
56830;SDS011;42713;42.676;23.352;2023-02-28T02:54:47;29.80;;;16.33;;
56830;SDS011;42713;42.676;23.352;2023-02-28T02:57:18;33.40;;;17.73;;
56830;SDS011;42713;42.676;23.352;2023-02-28T02:59:48;33.03;;;17.10;;
56830;SDS011;42713;42.676;23.352;2023-02-28T03:02:16;36.03;;;18.98;;
56830;SDS011;42713;42.676;23.352;2023-02-28T03:04:48;38.97;;;18.77;;
56830;SDS011;42713;42.676;23.352;2023-02-28T03:07:17;34.20;;;17.15;;
56830;SDS011;42713;42.676;23.352;2023-02-28T03:09:50;31.83;;;18.13;;
56830;SDS011;42713;42.676;23.352;2023-02-28T03:12:17;39.55;;;19.10;;
56830;SDS011;42713;42.676;23.352;2023-02-28T03:17:24;36.45;;;19.08;;
56830;SDS011;42713;42.676;23.352;2023-02-28T03:28:03;37.75;;;18.23;;
56830;SDS011;42713;42.676;23.352;2023-02-28T03:30:32;38.50;;;18.63;;
56830;SDS011;42713;42.676;23.352;2023-02-28T03:33:08;39.30;;;20.30;;
56830;SDS011;42713;42.676;23.352;2023-02-28T03:35:40;38.20;;;20.52;;
56830;SDS011;42713;42.676;23.352;2023-02-28T03:38:14;33.15;;;19.48;;
56830;SDS011;42713;42.676;23.352;2023-02-28T03:40:48;35.63;;;19.98;;
56830;SDS011;42713;42.676;23.352;2023-02-28T03:43:21;36.17;;;19.65;;
56830;SDS011;42713;42.676;23.352;2023-02-28T03:45:52;37.42;;;19.52;;
56830;SDS011;42713;42.676;23.352;2023-02-28T03:50:55;44.08;;;20.60;;
56830;SDS011;42713;42.676;23.352;2023-02-28T03:55:55;40.60;;;20.58;;
56830;SDS011;42713;42.676;23.352;2023-02-28T04:01:15;49.47;;;22.75;;
56830;SDS011;42713;42.676;23.352;2023-02-28T04:03:45;48.83;;;24.40;;
56830;SDS011;42713;42.676;23.352;2023-02-28T04:06:15;50.85;;;24.13;;
56830;SDS011;42713;42.676;23.352;2023-02-28T04:08:43;54.83;;;25.83;;
56830;SDS011;42713;42.676;23.352;2023-02-28T04:11:16;51.33;;;23.15;;
56830;SDS011;42713;42.676;23.352;2023-02-28T04:13:55;53.40;;;25.02;;
56830;SDS011;42713;42.676;23.352;2023-02-28T04:16:21;42.25;;;21.85;;
56830;SDS011;42713;42.676;23.352;2023-02-28T04:18:46;39.38;;;19.35;;
56830;SDS011;42713;42.676;23.352;2023-02-28T04:21:12;39.30;;;19.58;;
56830;SDS011;42713;42.676;23.352;2023-02-28T04:23:38;37.55;;;20.48;;
56830;SDS011;42713;42.676;23.352;2023-02-28T04:26:04;39.95;;;19.40;;
56830;SDS011;42713;42.676;23.352;2023-02-28T04:28:31;35.42;;;19.27;;
56830;SDS011;42713;42.676;23.352;2023-02-28T04:31:01;48.92;;;21.02;;
56830;SDS011;42713;42.676;23.352;2023-02-28T04:33:30;37.67;;;19.17;;
56830;SDS011;42713;42.676;23.352;2023-02-28T04:38:27;42.67;;;20.25;;
56830;SDS011;42713;42.676;23.352;2023-02-28T04:40:56;39.45;;;21.00;;
56830;SDS011;42713;42.676;23.352;2023-02-28T04:43:22;42.35;;;20.73;;
56830;SDS011;42713;42.676;23.352;2023-02-28T04:45:47;42.55;;;20.40;;
56830;SDS011;42713;42.676;23.352;2023-02-28T04:48:13;38.75;;;20.23;;
56830;SDS011;42713;42.676;23.352;2023-02-28T04:50:38;44.05;;;20.70;;
56830;SDS011;42713;42.676;23.352;2023-02-28T04:53:04;41.55;;;19.55;;
56830;SDS011;42713;42.676;23.352;2023-02-28T04:55:29;67.75;;;23.00;;
56830;SDS011;42713;42.676;23.352;2023-02-28T04:57:55;50.40;;;20.38;;
56830;SDS011;42713;42.676;23.352;2023-02-28T05:00:20;66.97;;;23.73;;
56830;SDS011;42713;42.676;23.352;2023-02-28T05:02:46;48.30;;;22.02;;
56830;SDS011;42713;42.676;23.352;2023-02-28T05:05:11;71.25;;;21.60;;
56830;SDS011;42713;42.676;23.352;2023-02-28T05:07:43;56.42;;;21.83;;
56830;SDS011;42713;42.676;23.352;2023-02-28T05:10:09;45.30;;;21.15;;
56830;SDS011;42713;42.676;23.352;2023-02-28T05:12:35;54.08;;;22.50;;
56830;SDS011;42713;42.676;23.352;2023-02-28T05:15:01;43.47;;;21.38;;
56830;SDS011;42713;42.676;23.352;2023-02-28T05:17:27;54.97;;;21.88;;
56830;SDS011;42713;42.676;23.352;2023-02-28T05:19:53;53.50;;;22.83;;
56830;SDS011;42713;42.676;23.352;2023-02-28T05:22:18;40.83;;;21.65;;
56830;SDS011;42713;42.676;23.352;2023-02-28T05:24:43;47.05;;;22.52;;
56830;SDS011;42713;42.676;23.352;2023-02-28T05:27:09;41.45;;;20.13;;
56830;SDS011;42713;42.676;23.352;2023-02-28T05:29:35;40.25;;;19.75;;
56830;SDS011;42713;42.676;23.352;2023-02-28T05:34:33;38.75;;;18.90;;
56830;SDS011;42713;42.676;23.352;2023-02-28T05:36:58;41.83;;;20.58;;
56830;SDS011;42713;42.676;23.352;2023-02-28T05:39:24;46.38;;;22.27;;
56830;SDS011;42713;42.676;23.352;2023-02-28T05:41:49;39.72;;;21.08;;
56830;SDS011;42713;42.676;23.352;2023-02-28T05:44:15;41.90;;;21.05;;
56830;SDS011;42713;42.676;23.352;2023-02-28T05:46:40;42.78;;;20.98;;
56830;SDS011;42713;42.676;23.352;2023-02-28T05:49:06;41.08;;;20.88;;
56830;SDS011;42713;42.676;23.352;2023-02-28T05:51:31;46.22;;;21.35;;
56830;SDS011;42713;42.676;23.352;2023-02-28T05:54:00;40.03;;;20.95;;
56830;SDS011;42713;42.676;23.352;2023-02-28T05:56:26;44.13;;;21.95;;
56830;SDS011;42713;42.676;23.352;2023-02-28T05:58:52;42.72;;;21.00;;
56830;SDS011;42713;42.676;23.352;2023-02-28T06:01:26;44.78;;;23.38;;
56830;SDS011;42713;42.676;23.352;2023-02-28T06:04:00;44.25;;;21.73;;
56830;SDS011;42713;42.676;23.352;2023-02-28T06:06:27;43.83;;;22.52;;
56830;SDS011;42713;42.676;23.352;2023-02-28T06:08:54;47.58;;;22.65;;
56830;SDS011;42713;42.676;23.352;2023-02-28T06:11:20;44.83;;;22.98;;
56830;SDS011;42713;42.676;23.352;2023-02-28T06:13:47;47.28;;;24.67;;
56830;SDS011;42713;42.676;23.352;2023-02-28T06:16:12;49.33;;;24.90;;
56830;SDS011;42713;42.676;23.352;2023-02-28T06:18:38;49.03;;;25.02;;
56830;SDS011;42713;42.676;23.352;2023-02-28T06:21:04;48.97;;;24.38;;
56830;SDS011;42713;42.676;23.352;2023-02-28T06:23:30;46.88;;;24.58;;
56830;SDS011;42713;42.676;23.352;2023-02-28T06:25:55;51.60;;;25.75;;
56830;SDS011;42713;42.676;23.352;2023-02-28T06:28:23;53.67;;;26.15;;
56830;SDS011;42713;42.676;23.352;2023-02-28T06:30:50;50.25;;;26.55;;
56830;SDS011;42713;42.676;23.352;2023-02-28T06:33:16;52.70;;;25.33;;
56830;SDS011;42713;42.676;23.352;2023-02-28T06:35:46;48.90;;;25.58;;
56830;SDS011;42713;42.676;23.352;2023-02-28T06:38:15;48.55;;;24.67;;
56830;SDS011;42713;42.676;23.352;2023-02-28T06:40:40;47.83;;;25.27;;
56830;SDS011;42713;42.676;23.352;2023-02-28T06:43:05;44.58;;;24.20;;
56830;SDS011;42713;42.676;23.352;2023-02-28T06:45:31;47.75;;;26.17;;
56830;SDS011;42713;42.676;23.352;2023-02-28T06:47:57;55.08;;;27.30;;
56830;SDS011;42713;42.676;23.352;2023-02-28T06:50:23;62.83;;;29.70;;
56830;SDS011;42713;42.676;23.352;2023-02-28T06:52:50;68.60;;;31.52;;
56830;SDS011;42713;42.676;23.352;2023-02-28T06:55:19;68.20;;;29.92;;
56830;SDS011;42713;42.676;23.352;2023-02-28T06:57:44;61.65;;;28.95;;
56830;SDS011;42713;42.676;23.352;2023-02-28T07:00:10;65.13;;;30.27;;
56830;SDS011;42713;42.676;23.352;2023-02-28T07:02:36;61.63;;;28.40;;
56830;SDS011;42713;42.676;23.352;2023-02-28T07:05:05;54.03;;;26.70;;
56830;SDS011;42713;42.676;23.352;2023-02-28T07:07:31;59.42;;;28.40;;
56830;SDS011;42713;42.676;23.352;2023-02-28T07:09:57;52.80;;;27.88;;
56830;SDS011;42713;42.676;23.352;2023-02-28T07:12:22;53.17;;;26.27;;
56830;SDS011;42713;42.676;23.352;2023-02-28T07:14:48;57.17;;;27.40;;
56830;SDS011;42713;42.676;23.352;2023-02-28T07:17:14;47.70;;;25.98;;
56830;SDS011;42713;42.676;23.352;2023-02-28T07:19:40;48.65;;;24.95;;
56830;SDS011;42713;42.676;23.352;2023-02-28T07:22:05;43.58;;;23.48;;
56830;SDS011;42713;42.676;23.352;2023-02-28T07:24:32;41.42;;;23.05;;
56830;SDS011;42713;42.676;23.352;2023-02-28T07:26:58;44.40;;;23.23;;
56830;SDS011;42713;42.676;23.352;2023-02-28T07:29:24;44.05;;;23.67;;
56830;SDS011;42713;42.676;23.352;2023-02-28T07:31:50;44.55;;;25.58;;
56830;SDS011;42713;42.676;23.352;2023-02-28T07:34:18;43.55;;;24.45;;
56830;SDS011;42713;42.676;23.352;2023-02-28T07:36:44;48.33;;;25.27;;
56830;SDS011;42713;42.676;23.352;2023-02-28T07:39:10;40.25;;;22.10;;
56830;SDS011;42713;42.676;23.352;2023-02-28T07:41:36;44.00;;;21.83;;
56830;SDS011;42713;42.676;23.352;2023-02-28T07:44:08;35.83;;;21.23;;
56830;SDS011;42713;42.676;23.352;2023-02-28T07:46:36;38.60;;;21.52;;
56830;SDS011;42713;42.676;23.352;2023-02-28T07:49:02;33.85;;;19.90;;
56830;SDS011;42713;42.676;23.352;2023-02-28T07:51:29;35.58;;;19.70;;
56830;SDS011;42713;42.676;23.352;2023-02-28T07:53:55;33.75;;;19.48;;
56830;SDS011;42713;42.676;23.352;2023-02-28T07:56:21;38.25;;;19.77;;
56830;SDS011;42713;42.676;23.352;2023-02-28T07:58:46;33.10;;;19.63;;
56830;SDS011;42713;42.676;23.352;2023-02-28T08:01:12;32.25;;;19.20;;
56830;SDS011;42713;42.676;23.352;2023-02-28T08:03:38;39.67;;;20.27;;
56830;SDS011;42713;42.676;23.352;2023-02-28T08:06:05;30.95;;;18.15;;
56830;SDS011;42713;42.676;23.352;2023-02-28T08:08:32;35.22;;;19.98;;
56830;SDS011;42713;42.676;23.352;2023-02-28T08:10:58;41.55;;;21.30;;
56830;SDS011;42713;42.676;23.352;2023-02-28T08:13:25;40.45;;;21.52;;
56830;SDS011;42713;42.676;23.352;2023-02-28T08:15:52;47.17;;;25.90;;
56830;SDS011;42713;42.676;23.352;2023-02-28T08:18:19;39.10;;;23.17;;
56830;SDS011;42713;42.676;23.352;2023-02-28T08:20:44;42.78;;;24.05;;
56830;SDS011;42713;42.676;23.352;2023-02-28T08:23:09;43.28;;;22.85;;
56830;SDS011;42713;42.676;23.352;2023-02-28T08:25:35;40.17;;;22.92;;
56830;SDS011;42713;42.676;23.352;2023-02-28T08:28:00;38.22;;;22.25;;
56830;SDS011;42713;42.676;23.352;2023-02-28T08:30:26;42.65;;;24.65;;
56830;SDS011;42713;42.676;23.352;2023-02-28T08:32:52;45.42;;;25.77;;
56830;SDS011;42713;42.676;23.352;2023-02-28T08:35:17;44.08;;;23.42;;
56830;SDS011;42713;42.676;23.352;2023-02-28T08:37:42;46.83;;;24.88;;
56830;SDS011;42713;42.676;23.352;2023-02-28T08:40:08;43.20;;;23.42;;
56830;SDS011;42713;42.676;23.352;2023-02-28T08:42:35;45.75;;;25.58;;
56830;SDS011;42713;42.676;23.352;2023-02-28T08:45:01;48.63;;;24.85;;
56830;SDS011;42713;42.676;23.352;2023-02-28T08:47:26;44.25;;;24.10;;
56830;SDS011;42713;42.676;23.352;2023-02-28T08:49:52;40.95;;;22.48;;
56830;SDS011;42713;42.676;23.352;2023-02-28T08:52:18;42.20;;;22.13;;
56830;SDS011;42713;42.676;23.352;2023-02-28T08:54:43;41.13;;;20.23;;
56830;SDS011;42713;42.676;23.352;2023-02-28T08:57:08;41.20;;;19.20;;
56830;SDS011;42713;42.676;23.352;2023-02-28T08:59:34;44.45;;;17.88;;
56830;SDS011;42713;42.676;23.352;2023-02-28T09:01:59;34.95;;;16.52;;
56830;SDS011;42713;42.676;23.352;2023-02-28T09:04:25;44.78;;;17.75;;
56830;SDS011;42713;42.676;23.352;2023-02-28T09:06:50;34.45;;;16.45;;
56830;SDS011;42713;42.676;23.352;2023-02-28T09:09:16;35.70;;;17.17;;
56830;SDS011;42713;42.676;23.352;2023-02-28T09:11:41;35.95;;;17.58;;
56830;SDS011;42713;42.676;23.352;2023-02-28T09:14:07;37.63;;;18.15;;
56830;SDS011;42713;42.676;23.352;2023-02-28T09:16:33;41.30;;;16.98;;
56830;SDS011;42713;42.676;23.352;2023-02-28T09:19:00;39.08;;;16.30;;
56830;SDS011;42713;42.676;23.352;2023-02-28T09:21:26;32.25;;;16.20;;
56830;SDS011;42713;42.676;23.352;2023-02-28T09:23:53;40.47;;;16.63;;
56830;SDS011;42713;42.676;23.352;2023-02-28T09:26:21;32.08;;;15.20;;
56830;SDS011;42713;42.676;23.352;2023-02-28T09:28:48;34.00;;;16.92;;
56830;SDS011;42713;42.676;23.352;2023-02-28T09:31:15;33.25;;;17.15;;
56830;SDS011;42713;42.676;23.352;2023-02-28T09:33:46;37.70;;;19.60;;
56830;SDS011;42713;42.676;23.352;2023-02-28T09:36:13;41.58;;;18.17;;
56830;SDS011;42713;42.676;23.352;2023-02-28T09:38:39;46.35;;;23.33;;
56830;SDS011;42713;42.676;23.352;2023-02-28T09:41:16;35.53;;;18.52;;
56830;SDS011;42713;42.676;23.352;2023-02-28T09:43:45;39.22;;;16.20;;
56830;SDS011;42713;42.676;23.352;2023-02-28T09:48:46;31.02;;;15.48;;
56830;SDS011;42713;42.676;23.352;2023-02-28T09:54:34;42.55;;;15.00;;
56830;SDS011;42713;42.676;23.352;2023-02-28T09:57:21;29.35;;;12.85;;
56830;SDS011;42713;42.676;23.352;2023-02-28T10:05:38;31.55;;;13.02;;
56830;SDS011;42713;42.676;23.352;2023-02-28T10:08:25;25.10;;;11.95;;
56830;SDS011;42713;42.676;23.352;2023-02-28T10:10:55;35.97;;;13.93;;
56830;SDS011;42713;42.676;23.352;2023-02-28T10:13:27;28.92;;;12.82;;
56830;SDS011;42713;42.676;23.352;2023-02-28T10:16:05;30.35;;;12.63;;
56830;SDS011;42713;42.676;23.352;2023-02-28T10:18:41;31.67;;;12.38;;
56830;SDS011;42713;42.676;23.352;2023-02-28T10:23:56;26.77;;;12.75;;
56830;SDS011;42713;42.676;23.352;2023-02-28T10:26:27;26.95;;;12.18;;
56830;SDS011;42713;42.676;23.352;2023-02-28T10:28:55;20.27;;;11.40;;
56830;SDS011;42713;42.676;23.352;2023-02-28T10:31:20;29.02;;;12.57;;
56830;SDS011;42713;42.676;23.352;2023-02-28T10:33:46;24.83;;;11.07;;
56830;SDS011;42713;42.676;23.352;2023-02-28T10:36:14;29.00;;;11.13;;
56830;SDS011;42713;42.676;23.352;2023-02-28T10:38:41;25.30;;;11.25;;
56830;SDS011;42713;42.676;23.352;2023-02-28T10:41:09;27.92;;;11.60;;
56830;SDS011;42713;42.676;23.352;2023-02-28T10:43:37;27.05;;;11.15;;
56830;SDS011;42713;42.676;23.352;2023-02-28T10:48:37;25.45;;;10.30;;
56830;SDS011;42713;42.676;23.352;2023-02-28T10:51:14;22.98;;;11.35;;
56830;SDS011;42713;42.676;23.352;2023-02-28T11:01:21;25.77;;;10.43;;
56830;SDS011;42713;42.676;23.352;2023-02-28T11:03:55;27.95;;;10.82;;
56830;SDS011;42713;42.676;23.352;2023-02-28T11:06:23;26.08;;;10.52;;
56830;SDS011;42713;42.676;23.352;2023-02-28T11:08:55;27.40;;;9.60;;
56830;SDS011;42713;42.676;23.352;2023-02-28T11:11:24;21.70;;;10.40;;
56830;SDS011;42713;42.676;23.352;2023-02-28T11:13:55;23.50;;;11.30;;
56830;SDS011;42713;42.676;23.352;2023-02-28T11:16:34;24.75;;;11.25;;
56830;SDS011;42713;42.676;23.352;2023-02-28T11:19:02;26.88;;;11.25;;
56830;SDS011;42713;42.676;23.352;2023-02-28T11:21:36;30.55;;;10.98;;
56830;SDS011;42713;42.676;23.352;2023-02-28T11:24:19;26.05;;;10.95;;
56830;SDS011;42713;42.676;23.352;2023-02-28T11:26:50;25.13;;;9.98;;
56830;SDS011;42713;42.676;23.352;2023-02-28T11:29:19;29.52;;;12.13;;
56830;SDS011;42713;42.676;23.352;2023-02-28T11:34:36;27.90;;;10.93;;
56830;SDS011;42713;42.676;23.352;2023-02-28T11:37:02;29.65;;;11.30;;
56830;SDS011;42713;42.676;23.352;2023-02-28T11:39:31;32.78;;;11.50;;
56830;SDS011;42713;42.676;23.352;2023-02-28T11:42:11;26.52;;;11.00;;
56830;SDS011;42713;42.676;23.352;2023-02-28T11:45:15;21.15;;;10.73;;
56830;SDS011;42713;42.676;23.352;2023-02-28T11:48:01;26.33;;;11.63;;
56830;SDS011;42713;42.676;23.352;2023-02-28T11:53:03;26.38;;;12.38;;
56830;SDS011;42713;42.676;23.352;2023-02-28T11:55:38;28.95;;;12.05;;
56830;SDS011;42713;42.676;23.352;2023-02-28T12:05:58;27.70;;;12.80;;
56830;SDS011;42713;42.676;23.352;2023-02-28T12:11:57;24.20;;;11.35;;
56830;SDS011;42713;42.676;23.352;2023-02-28T12:20:27;25.95;;;10.98;;
56830;SDS011;42713;42.676;23.352;2023-02-28T12:28:25;31.73;;;12.32;;
56830;SDS011;42713;42.676;23.352;2023-02-28T12:31:37;33.03;;;13.00;;
56830;SDS011;42713;42.676;23.352;2023-02-28T12:33:53;26.13;;;11.45;;
56830;SDS011;42713;42.676;23.352;2023-02-28T12:36:25;25.05;;;11.13;;
56830;SDS011;42713;42.676;23.352;2023-02-28T12:41:44;27.67;;;12.10;;
56830;SDS011;42713;42.676;23.352;2023-02-28T12:44:34;27.27;;;11.63;;
56830;SDS011;42713;42.676;23.352;2023-02-28T12:47:09;26.40;;;11.40;;
56830;SDS011;42713;42.676;23.352;2023-02-28T12:52:21;21.38;;;10.55;;
56830;SDS011;42713;42.676;23.352;2023-02-28T12:54:55;27.92;;;11.43;;
56830;SDS011;42713;42.676;23.352;2023-02-28T12:57:34;33.45;;;10.75;;
56830;SDS011;42713;42.676;23.352;2023-02-28T13:00:24;26.65;;;11.13;;
56830;SDS011;42713;42.676;23.352;2023-02-28T13:10:53;29.15;;;10.05;;
56830;SDS011;42713;42.676;23.352;2023-02-28T13:13:25;23.90;;;10.32;;
56830;SDS011;42713;42.676;23.352;2023-02-28T13:21:06;22.17;;;10.48;;
56830;SDS011;42713;42.676;23.352;2023-02-28T13:23:38;27.90;;;10.95;;
56830;SDS011;42713;42.676;23.352;2023-02-28T13:29:42;28.30;;;10.98;;
56830;SDS011;42713;42.676;23.352;2023-02-28T13:37:47;22.27;;;10.13;;
56830;SDS011;42713;42.676;23.352;2023-02-28T13:39:54;21.15;;;9.25;;
56830;SDS011;42713;42.676;23.352;2023-02-28T13:42:35;26.20;;;10.85;;
56830;SDS011;42713;42.676;23.352;2023-02-28T13:52:57;27.10;;;9.88;;
56830;SDS011;42713;42.676;23.352;2023-02-28T14:08:59;22.27;;;9.38;;
56830;SDS011;42713;42.676;23.352;2023-02-28T14:11:33;24.80;;;9.40;;
56830;SDS011;42713;42.676;23.352;2023-02-28T14:14:01;26.20;;;9.68;;
56830;SDS011;42713;42.676;23.352;2023-02-28T14:16:41;25.60;;;10.13;;
56830;SDS011;42713;42.676;23.352;2023-02-28T14:19:12;22.80;;;9.88;;
56830;SDS011;42713;42.676;23.352;2023-02-28T14:22:19;23.67;;;10.00;;
56830;SDS011;42713;42.676;23.352;2023-02-28T14:24:55;23.33;;;9.60;;
56830;SDS011;42713;42.676;23.352;2023-02-28T14:30:29;27.50;;;10.45;;
56830;SDS011;42713;42.676;23.352;2023-02-28T14:36:06;27.63;;;10.35;;
56830;SDS011;42713;42.676;23.352;2023-02-28T14:38:47;21.33;;;9.88;;
56830;SDS011;42713;42.676;23.352;2023-02-28T14:41:21;23.58;;;9.13;;
56830;SDS011;42713;42.676;23.352;2023-02-28T14:43:50;28.25;;;10.48;;
56830;SDS011;42713;42.676;23.352;2023-02-28T14:49:27;28.98;;;9.68;;
56830;SDS011;42713;42.676;23.352;2023-02-28T14:54:31;22.00;;;9.23;;
56830;SDS011;42713;42.676;23.352;2023-02-28T14:56:56;25.25;;;10.05;;
56830;SDS011;42713;42.676;23.352;2023-02-28T14:59:32;26.15;;;9.45;;
56830;SDS011;42713;42.676;23.352;2023-02-28T15:04:52;20.30;;;8.35;;
56830;SDS011;42713;42.676;23.352;2023-02-28T15:07:22;23.60;;;8.02;;
56830;SDS011;42713;42.676;23.352;2023-02-28T15:10:09;25.23;;;9.55;;
56830;SDS011;42713;42.676;23.352;2023-02-28T15:12:38;20.60;;;9.75;;
56830;SDS011;42713;42.676;23.352;2023-02-28T15:15:06;22.50;;;8.15;;
56830;SDS011;42713;42.676;23.352;2023-02-28T15:17:39;20.23;;;7.85;;
56830;SDS011;42713;42.676;23.352;2023-02-28T15:20:10;21.92;;;8.93;;
56830;SDS011;42713;42.676;23.352;2023-02-28T15:22:39;21.15;;;8.38;;
56830;SDS011;42713;42.676;23.352;2023-02-28T15:25:05;23.85;;;7.70;;
56830;SDS011;42713;42.676;23.352;2023-02-28T15:27:33;23.95;;;7.90;;
56830;SDS011;42713;42.676;23.352;2023-02-28T15:30:14;22.08;;;7.75;;
56830;SDS011;42713;42.676;23.352;2023-02-28T15:33:00;23.08;;;8.43;;
56830;SDS011;42713;42.676;23.352;2023-02-28T15:35:47;21.98;;;8.43;;
56830;SDS011;42713;42.676;23.352;2023-02-28T15:38:26;22.67;;;7.57;;
56830;SDS011;42713;42.676;23.352;2023-02-28T15:40:53;18.25;;;7.28;;
56830;SDS011;42713;42.676;23.352;2023-02-28T15:48:28;16.75;;;7.45;;
56830;SDS011;42713;42.676;23.352;2023-02-28T15:50:57;19.85;;;7.25;;
56830;SDS011;42713;42.676;23.352;2023-02-28T15:53:33;18.50;;;7.78;;
56830;SDS011;42713;42.676;23.352;2023-02-28T15:56:04;19.95;;;7.18;;
56830;SDS011;42713;42.676;23.352;2023-02-28T15:58:41;15.88;;;7.78;;
56830;SDS011;42713;42.676;23.352;2023-02-28T16:01:15;16.27;;;7.47;;
56830;SDS011;42713;42.676;23.352;2023-02-28T16:03:45;21.70;;;7.53;;
56830;SDS011;42713;42.676;23.352;2023-02-28T16:08:41;16.08;;;7.47;;
56830;SDS011;42713;42.676;23.352;2023-02-28T16:11:08;17.63;;;7.10;;
56830;SDS011;42713;42.676;23.352;2023-02-28T16:13:35;18.10;;;7.70;;
56830;SDS011;42713;42.676;23.352;2023-02-28T16:16:01;16.50;;;7.47;;
56830;SDS011;42713;42.676;23.352;2023-02-28T16:18:26;15.98;;;8.35;;
56830;SDS011;42713;42.676;23.352;2023-02-28T16:20:52;14.38;;;7.47;;
56830;SDS011;42713;42.676;23.352;2023-02-28T16:23:18;15.25;;;7.07;;
56830;SDS011;42713;42.676;23.352;2023-02-28T16:25:44;19.70;;;6.30;;
56830;SDS011;42713;42.676;23.352;2023-02-28T16:30:48;17.38;;;6.82;;
56830;SDS011;42713;42.676;23.352;2023-02-28T16:33:16;13.52;;;6.25;;
56830;SDS011;42713;42.676;23.352;2023-02-28T16:35:41;15.60;;;5.85;;
56830;SDS011;42713;42.676;23.352;2023-02-28T16:38:07;13.38;;;6.07;;
56830;SDS011;42713;42.676;23.352;2023-02-28T16:40:33;13.35;;;6.72;;
56830;SDS011;42713;42.676;23.352;2023-02-28T16:43:00;14.23;;;7.13;;
56830;SDS011;42713;42.676;23.352;2023-02-28T16:45:49;13.55;;;6.25;;
56830;SDS011;42713;42.676;23.352;2023-02-28T16:48:20;19.38;;;7.13;;
56830;SDS011;42713;42.676;23.352;2023-02-28T16:50:46;13.82;;;6.28;;
56830;SDS011;42713;42.676;23.352;2023-02-28T16:53:11;15.07;;;6.72;;
56830;SDS011;42713;42.676;23.352;2023-02-28T16:55:37;13.32;;;6.18;;
56830;SDS011;42713;42.676;23.352;2023-02-28T16:58:02;13.30;;;5.95;;
56830;SDS011;42713;42.676;23.352;2023-02-28T17:00:28;10.77;;;5.32;;
56830;SDS011;42713;42.676;23.352;2023-02-28T17:02:56;16.35;;;5.97;;
56830;SDS011;42713;42.676;23.352;2023-02-28T17:05:22;12.93;;;5.47;;
56830;SDS011;42713;42.676;23.352;2023-02-28T17:07:48;18.27;;;6.40;;
56830;SDS011;42713;42.676;23.352;2023-02-28T17:10:16;13.90;;;5.53;;
56830;SDS011;42713;42.676;23.352;2023-02-28T17:12:49;15.18;;;6.30;;
56830;SDS011;42713;42.676;23.352;2023-02-28T17:15:15;11.90;;;5.65;;